createdAt,value
2023-03-31T00:01:01.424Z,1.00
2023-03-31T00:03:03.511Z,1.00
2023-03-31T00:05:05.923Z,1.00
2023-03-31T00:07:08.231Z,1.00
2023-03-31T00:09:13.075Z,1.00
2023-03-31T00:11:14.810Z,1.00
2023-03-31T00:13:17.318Z,1.00
2023-03-31T00:15:19.066Z,1.00
2023-03-31T00:17:20.923Z,1.00
2023-03-31T00:19:22.640Z,1.00
2023-03-31T00:21:25.187Z,1.00
2023-03-31T00:23:28.027Z,1.00
2023-03-31T00:25:29.876Z,1.00
2023-03-31T00:27:31.579Z,1.00
2023-03-31T00:29:35.986Z,1.00
2023-03-31T00:31:39.085Z,1.00
2023-03-31T00:33:40.975Z,1.00
2023-03-31T00:35:43.565Z,1.00
2023-03-31T00:37:45.936Z,1.00
2023-03-31T00:39:47.760Z,1.00
2023-03-31T00:41:50.332Z,1.00
2023-03-31T00:44:18.673Z,1.00
2023-03-31T00:46:29.464Z,1.00
2023-03-31T00:48:32.358Z,1.00
2023-03-31T00:50:40.769Z,1.00
2023-03-31T00:52:42.553Z,1.00
2023-03-31T00:54:46.567Z,99.90
2023-03-31T00:56:50.174Z,1.00
2023-03-31T00:58:54.058Z,1.00
2023-03-31T01:00:58.391Z,1.00
2023-03-31T01:03:05.330Z,99.90
2023-03-31T01:05:08.833Z,99.90
2023-03-31T01:07:31.035Z,1.00
2023-03-31T01:09:35.330Z,99.90
2023-03-31T01:11:37.488Z,1.00
2023-03-31T01:13:41.702Z,1.00
2023-03-31T01:15:43.843Z,1.00
2023-03-31T01:17:47.453Z,99.90
2023-03-31T01:19:54.492Z,99.90
2023-03-31T01:22:38.141Z,99.90
2023-03-31T01:25:09.587Z,99.90
2023-03-31T01:27:34.912Z,99.90
2023-03-31T01:29:51.801Z,99.90
2023-03-31T01:32:24.535Z,99.90
2023-03-31T01:35:09.869Z,99.90
2023-03-31T01:37:40.079Z,99.90
2023-03-31T01:40:02.745Z,99.90
2023-03-31T01:42:17.066Z,99.90
2023-03-31T01:44:39.084Z,99.90
2023-03-31T01:47:01.426Z,99.90
2023-03-31T01:49:06.182Z,99.90
2023-03-31T01:51:19.781Z,99.90
2023-03-31T01:53:36.410Z,99.90
2023-03-31T01:55:45.513Z,99.90
2023-03-31T01:58:16.966Z,99.90
2023-03-31T02:00:26.090Z,99.90
2023-03-31T02:02:37.295Z,99.90
2023-03-31T02:04:48.453Z,99.90
2023-03-31T02:07:03.622Z,99.90
2023-03-31T02:09:12.270Z,99.90
2023-03-31T02:11:14.604Z,99.90
2023-03-31T02:13:17.579Z,99.90
2023-03-31T02:15:24.046Z,99.90
2023-03-31T02:17:30.719Z,1.00
2023-03-31T02:19:36.438Z,99.90
2023-03-31T02:21:40.667Z,1.00
2023-03-31T02:23:44.188Z,1.00
2023-03-31T02:25:51.357Z,1.00
2023-03-31T02:28:17.266Z,1.00
2023-03-31T02:30:19.171Z,99.90
2023-03-31T02:32:38.236Z,99.90
2023-03-31T02:34:40.452Z,1.00
2023-03-31T02:36:44.148Z,1.00
2023-03-31T02:38:58.407Z,1.00
2023-03-31T02:41:00.284Z,1.00
2023-03-31T02:43:02.625Z,1.00
2023-03-31T02:45:06.652Z,1.00
2023-03-31T02:47:12.479Z,1.00
2023-03-31T02:49:15.566Z,1.00
2023-03-31T02:51:43.330Z,1.00
2023-03-31T02:54:23.324Z,1.00
2023-03-31T02:56:37.014Z,1.00
2023-03-31T02:59:16.669Z,1.00
2023-03-31T03:01:36.705Z,1.00
2023-03-31T03:03:38.430Z,1.00
2023-03-31T03:05:55.125Z,1.00
2023-03-31T03:08:35.663Z,1.00
2023-03-31T03:11:11.290Z,1.00
2023-03-31T03:13:20.838Z,1.00
2023-03-31T03:15:32.536Z,1.00
2023-03-31T03:17:44.408Z,1.00
2023-03-31T03:19:53.370Z,1.00
2023-03-31T03:21:55.513Z,1.00
2023-03-31T03:23:57.521Z,1.00
2023-03-31T03:25:59.261Z,1.00
2023-03-31T03:28:01.290Z,1.00
2023-03-31T03:30:05.102Z,1.00
2023-03-31T03:32:07.012Z,1.00
2023-03-31T03:34:09.868Z,1.00
2023-03-31T03:36:11.779Z,1.00
2023-03-31T03:38:13.546Z,1.00
2023-03-31T03:40:15.421Z,1.00
2023-03-31T03:42:17.170Z,1.00
2023-03-31T03:44:18.941Z,1.00
2023-03-31T03:46:20.806Z,1.00
2023-03-31T03:48:22.630Z,1.00
2023-03-31T03:50:24.469Z,1.00
2023-03-31T03:52:26.554Z,1.00
2023-03-31T03:54:28.504Z,1.00
2023-03-31T03:56:30.675Z,1.00
2023-03-31T03:58:32.521Z,1.00
2023-03-31T04:00:34.770Z,1.00
2023-03-31T04:02:36.913Z,1.00
2023-03-31T04:04:38.764Z,1.00
2023-03-31T04:06:40.752Z,1.00
2023-03-31T04:08:42.517Z,1.00
2023-03-31T04:10:49.491Z,1.00
2023-03-31T04:12:51.473Z,1.00
2023-03-31T04:14:53.199Z,1.00
2023-03-31T04:16:56.500Z,1.00
2023-03-31T04:18:59.137Z,1.00
2023-03-31T04:21:06.879Z,1.00
2023-03-31T04:23:10.036Z,1.00
2023-03-31T04:25:16.723Z,1.00
2023-03-31T04:27:18.768Z,1.00
2023-03-31T04:29:22.546Z,1.00
2023-03-31T04:31:27.041Z,1.00
2023-03-31T04:33:29.459Z,2.70
2023-03-31T04:35:50.168Z,1.00
2023-03-31T04:38:00.629Z,14.30
2023-03-31T04:40:08.639Z,9.60
2023-03-31T04:42:10.684Z,1.00
2023-03-31T04:44:12.788Z,1.00
2023-03-31T04:46:14.770Z,1.00
2023-03-31T04:48:16.680Z,1.00
2023-03-31T04:50:18.440Z,1.00
2023-03-31T04:52:20.265Z,1.00
2023-03-31T04:54:22.025Z,1.00
2023-03-31T04:56:23.787Z,1.00
2023-03-31T04:58:25.526Z,1.00
2023-03-31T05:00:28.881Z,1.00
2023-03-31T05:02:30.963Z,1.00
2023-03-31T05:04:32.843Z,1.00
2023-03-31T05:06:34.597Z,1.00
2023-03-31T05:08:36.367Z,1.00
2023-03-31T05:10:38.144Z,1.00
2023-03-31T05:12:40.284Z,1.00
2023-03-31T05:14:42.130Z,1.00
2023-03-31T05:16:44.666Z,1.00
2023-03-31T05:18:46.477Z,1.00
2023-03-31T05:20:48.416Z,1.00
2023-03-31T05:22:51.028Z,1.00
2023-03-31T05:24:53.155Z,1.00
2023-03-31T05:26:57.374Z,1.00
2023-03-31T05:28:59.179Z,1.00
2023-03-31T05:31:01.768Z,1.00
2023-03-31T05:33:03.778Z,1.00
2023-03-31T05:35:06.378Z,1.00
2023-03-31T05:37:08.205Z,41.20
2023-03-31T05:39:10.250Z,99.00
2023-03-31T05:41:12.111Z,99.90
2023-03-31T05:43:14.000Z,99.90
2023-03-31T05:45:15.846Z,99.90
2023-03-31T05:47:18.195Z,99.90
2023-03-31T05:49:20.484Z,99.90
2023-03-31T05:51:22.938Z,99.90
2023-03-31T05:53:25.601Z,99.90
2023-03-31T05:55:27.459Z,99.90
2023-03-31T05:57:29.289Z,99.90
2023-03-31T05:59:31.374Z,99.90
2023-03-31T06:01:33.252Z,99.90
2023-03-31T06:03:37.485Z,99.90
2023-03-31T06:05:39.344Z,99.90
2023-03-31T06:07:41.173Z,99.90
2023-03-31T06:09:43.014Z,99.90
2023-03-31T06:11:45.080Z,99.90
2023-03-31T06:13:47.340Z,99.90
2023-03-31T06:15:59.877Z,99.90
2023-03-31T06:18:01.744Z,99.90
2023-03-31T06:20:13.150Z,99.90
2023-03-31T06:22:26.120Z,99.90
2023-03-31T06:24:27.896Z,99.90
2023-03-31T06:26:29.632Z,99.90
2023-03-31T06:28:40.783Z,99.90
2023-03-31T06:30:42.950Z,99.90
2023-03-31T06:32:44.792Z,99.90
2023-03-31T06:34:46.675Z,99.90
2023-03-31T06:36:48.536Z,99.90
2023-03-31T06:38:51.316Z,99.90
2023-03-31T06:40:53.355Z,99.90
2023-03-31T06:42:55.521Z,99.90
2023-03-31T06:44:57.284Z,99.90
2023-03-31T06:46:59.042Z,99.90
2023-03-31T06:49:00.840Z,99.90
2023-03-31T06:51:05.247Z,99.90
2023-03-31T06:53:07.392Z,99.90
2023-03-31T06:55:09.949Z,99.90
2023-03-31T06:57:11.938Z,99.90
2023-03-31T06:59:13.867Z,99.90
2023-03-31T07:01:15.784Z,99.90
2023-03-31T07:03:19.057Z,99.90
2023-03-31T07:05:27.317Z,99.90
2023-03-31T07:07:32.755Z,99.90
2023-03-31T07:09:34.509Z,99.90
2023-03-31T07:11:36.384Z,99.90
2023-03-31T07:13:38.234Z,99.90
2023-03-31T07:15:40.046Z,99.90
2023-03-31T07:17:42.431Z,99.90
2023-03-31T07:19:48.293Z,99.90
2023-03-31T07:21:51.393Z,99.90
2023-03-31T07:23:53.239Z,99.90
2023-03-31T07:25:55.335Z,99.90
2023-03-31T07:27:57.086Z,99.90
2023-03-31T07:29:58.822Z,99.90
2023-03-31T07:32:00.944Z,99.90
2023-03-31T07:34:03.878Z,99.90
2023-03-31T07:36:12.447Z,99.90
2023-03-31T07:38:15.987Z,99.90
2023-03-31T07:40:26.184Z,99.90
2023-03-31T07:42:28.083Z,99.90
2023-03-31T07:44:30.034Z,99.90
2023-03-31T07:46:31.919Z,99.90
2023-03-31T07:48:34.269Z,99.90
2023-03-31T07:50:36.484Z,99.90
2023-03-31T07:52:38.602Z,99.90
2023-03-31T07:54:40.649Z,99.90
2023-03-31T07:56:42.542Z,99.90
2023-03-31T07:58:45.384Z,99.90
2023-03-31T08:00:47.387Z,99.90
2023-03-31T08:02:49.464Z,99.90
2023-03-31T08:04:51.363Z,99.90
2023-03-31T08:06:53.332Z,48.70
2023-03-31T08:08:55.382Z,99.90
2023-03-31T08:10:57.461Z,91.60
2023-03-31T08:12:59.410Z,94.50
2023-03-31T08:15:01.498Z,99.90
2023-03-31T08:17:04.048Z,86.40
2023-03-31T08:19:06.208Z,88.10
2023-03-31T08:21:09.709Z,7.20
2023-03-31T08:23:12.193Z,82.30
2023-03-31T08:25:14.054Z,99.90
2023-03-31T08:27:15.901Z,33.90
2023-03-31T08:29:17.841Z,8.70
2023-03-31T08:31:21.613Z,1.00
2023-03-31T08:33:23.802Z,99.90
2023-03-31T08:35:25.486Z,99.90
2023-03-31T08:37:31.550Z,99.90
2023-03-31T08:39:34.217Z,99.90
2023-03-31T08:42:00.827Z,99.90
2023-03-31T08:44:09.070Z,1.00
2023-03-31T08:46:15.760Z,99.90
2023-03-31T08:48:32.520Z,6.90
2023-03-31T08:50:39.589Z,1.00
2023-03-31T08:52:53.218Z,1.00
2023-03-31T08:55:02.178Z,99.90
2023-03-31T08:57:12.598Z,99.90
2023-03-31T08:59:35.897Z,17.10
2023-03-31T09:01:55.773Z,1.00
2023-03-31T09:04:27.536Z,99.90
2023-03-31T09:06:41.436Z,1.00
2023-03-31T09:08:43.580Z,1.00
2023-03-31T09:11:13.848Z,1.00
2023-03-31T09:13:24.400Z,1.00
2023-03-31T09:15:38.440Z,99.90
2023-03-31T09:17:46.296Z,99.90
2023-03-31T09:19:54.328Z,1.00
2023-03-31T09:21:56.910Z,1.00
2023-03-31T09:24:17.268Z,1.00
2023-03-31T09:26:46.155Z,99.90
2023-03-31T09:28:47.951Z,32.40
2023-03-31T09:30:50.706Z,99.90
2023-03-31T09:33:12.997Z,99.90
2023-03-31T09:35:22.853Z,97.30
2023-03-31T09:37:30.207Z,99.90
2023-03-31T09:39:32.158Z,1.00
2023-03-31T09:41:34.376Z,31.80
2023-03-31T09:43:36.865Z,99.90
2023-03-31T09:45:38.772Z,1.00
2023-03-31T09:47:43.886Z,99.90
2023-03-31T09:49:53.863Z,99.90
2023-03-31T09:52:19.769Z,1.00
2023-03-31T09:54:48.156Z,99.90
2023-03-31T09:56:53.766Z,99.90
2023-03-31T09:59:02.689Z,99.90
2023-03-31T10:01:09.449Z,1.00
2023-03-31T10:03:14.068Z,99.90
2023-03-31T10:05:29.749Z,52.70
2023-03-31T10:07:32.636Z,1.00
2023-03-31T10:09:38.845Z,99.90
2023-03-31T10:12:08.514Z,1.00
2023-03-31T10:14:15.080Z,99.90
2023-03-31T10:16:42.733Z,99.90
2023-03-31T10:18:44.580Z,1.00
2023-03-31T10:20:53.024Z,1.00
2023-03-31T10:22:54.856Z,1.00
2023-03-31T10:25:10.432Z,1.00
2023-03-31T10:27:23.030Z,99.90
2023-03-31T10:29:34.515Z,99.90
2023-03-31T10:31:37.867Z,1.00
2023-03-31T10:33:48.949Z,1.00
2023-03-31T10:35:59.423Z,1.00
2023-03-31T10:38:24.129Z,1.00
2023-03-31T10:40:28.146Z,1.00
2023-03-31T10:42:30.195Z,1.00
2023-03-31T10:44:41.203Z,1.00
2023-03-31T10:46:52.834Z,1.00
2023-03-31T10:48:54.709Z,1.00
2023-03-31T10:51:28.681Z,1.00
2023-03-31T10:53:39.184Z,48.40
2023-03-31T10:55:47.178Z,1.00
2023-03-31T10:58:13.513Z,83.80
2023-03-31T11:00:20.586Z,31.80
2023-03-31T11:03:00.000Z,1.00
2023-03-31T11:05:43.558Z,1.00
2023-03-31T11:07:53.337Z,1.00
2023-03-31T11:09:57.840Z,1.00
2023-03-31T11:12:14.931Z,1.00
2023-03-31T11:14:44.444Z,1.00
2023-03-31T11:17:05.186Z,1.00
2023-03-31T11:19:47.978Z,1.00
2023-03-31T11:22:01.587Z,1.00
2023-03-31T11:24:27.326Z,1.00
2023-03-31T11:26:56.337Z,99.90
2023-03-31T11:29:26.146Z,86.50
2023-03-31T11:31:33.623Z,1.00
2023-03-31T11:34:07.443Z,1.00
2023-03-31T11:36:17.689Z,1.00
2023-03-31T11:38:30.686Z,1.00
2023-03-31T11:40:38.300Z,99.90
2023-03-31T11:42:49.887Z,99.90
2023-03-31T11:45:01.843Z,99.90
2023-03-31T11:47:18.982Z,99.90
2023-03-31T11:49:24.419Z,99.90
2023-03-31T11:51:30.771Z,99.90
2023-03-31T11:53:38.678Z,99.90
2023-03-31T11:55:41.231Z,99.90
2023-03-31T11:57:48.249Z,99.90
2023-03-31T12:00:00.438Z,99.90
2023-03-31T12:02:20.303Z,99.90
2023-03-31T12:04:30.447Z,99.90
2023-03-31T12:06:35.582Z,99.90
2023-03-31T12:08:58.940Z,99.90
2023-03-31T12:11:17.899Z,99.90
2023-03-31T12:13:39.946Z,99.90
2023-03-31T12:15:46.308Z,99.90
2023-03-31T12:18:12.346Z,99.90
2023-03-31T12:20:37.951Z,99.90
2023-03-31T12:22:44.396Z,85.20
2023-03-31T12:24:47.382Z,6.40
2023-03-31T12:27:01.319Z,1.00
2023-03-31T12:29:33.926Z,1.00
2023-03-31T12:31:38.021Z,1.00
2023-03-31T12:33:49.076Z,1.00
2023-03-31T12:36:16.021Z,1.00
2023-03-31T12:38:46.868Z,1.00
2023-03-31T12:41:39.839Z,99.90
2023-03-31T12:44:07.778Z,99.90
2023-03-31T12:46:34.786Z,1.00
2023-03-31T12:48:55.530Z,5.80
2023-03-31T12:51:12.536Z,1.00
2023-03-31T12:53:20.333Z,1.00
2023-03-31T12:55:40.641Z,1.00
2023-03-31T12:57:42.478Z,99.90
2023-03-31T12:59:45.900Z,99.90
2023-03-31T13:02:09.564Z,99.90
2023-03-31T13:04:27.680Z,1.00
2023-03-31T13:06:29.432Z,1.00
2023-03-31T13:09:06.065Z,1.00
2023-03-31T13:11:08.165Z,1.00
2023-03-31T13:13:16.999Z,1.00
2023-03-31T13:15:18.950Z,1.00
2023-03-31T13:17:33.019Z,99.90
2023-03-31T13:19:36.704Z,99.90
2023-03-31T13:21:59.348Z,1.00
2023-03-31T13:24:02.856Z,99.90
2023-03-31T13:26:06.010Z,1.00
2023-03-31T13:28:15.578Z,1.00
2023-03-31T13:30:35.952Z,1.00
2023-03-31T13:32:39.273Z,99.90
2023-03-31T13:34:46.516Z,1.00
2023-03-31T13:37:07.072Z,99.90
2023-03-31T13:39:12.885Z,1.00
2023-03-31T13:41:31.095Z,99.90
2023-03-31T13:44:00.713Z,1.00
2023-03-31T13:46:26.987Z,22.60
2023-03-31T13:48:49.620Z,99.90
2023-03-31T13:51:05.572Z,99.90
2023-03-31T13:53:27.797Z,99.90
2023-03-31T13:55:44.812Z,99.90
2023-03-31T13:58:29.527Z,99.90
2023-03-31T14:01:03.344Z,99.90
2023-03-31T14:03:18.525Z,99.90
2023-03-31T14:05:34.163Z,99.90
2023-03-31T14:07:46.447Z,99.90
2023-03-31T14:09:51.839Z,99.90
2023-03-31T14:11:53.867Z,99.90
2023-03-31T14:13:59.689Z,99.90
2023-03-31T14:16:02.288Z,1.00
2023-03-31T14:18:05.234Z,1.00
2023-03-31T14:20:25.670Z,1.00
2023-03-31T14:22:33.224Z,1.00
2023-03-31T14:24:50.558Z,1.00
2023-03-31T14:27:21.781Z,1.00
2023-03-31T14:29:47.520Z,1.00
2023-03-31T14:32:06.981Z,1.00
2023-03-31T14:34:26.232Z,99.90
2023-03-31T14:36:47.916Z,35.90
2023-03-31T14:38:49.938Z,99.90
2023-03-31T14:40:56.334Z,99.90
2023-03-31T14:42:59.049Z,99.90
2023-03-31T14:45:06.139Z,99.90
2023-03-31T14:47:19.884Z,1.00
2023-03-31T14:49:36.682Z,1.00
2023-03-31T14:51:43.797Z,1.00
2023-03-31T14:53:46.020Z,1.00
2023-03-31T14:55:58.218Z,99.90
2023-03-31T14:58:02.347Z,1.00
2023-03-31T15:00:09.846Z,99.90
2023-03-31T15:02:17.928Z,1.00
2023-03-31T15:04:28.600Z,99.90
2023-03-31T15:06:39.914Z,99.90
2023-03-31T15:08:43.198Z,1.00
2023-03-31T15:10:54.084Z,1.00
2023-03-31T15:13:07.754Z,96.70
2023-03-31T15:15:13.679Z,1.00
2023-03-31T15:17:25.640Z,1.00
2023-03-31T15:19:33.730Z,1.00
2023-03-31T15:21:38.142Z,6.00
2023-03-31T15:23:40.833Z,1.00
2023-03-31T15:25:44.497Z,1.00
2023-03-31T15:27:50.861Z,1.00
2023-03-31T15:29:57.231Z,99.90
2023-03-31T15:32:00.383Z,1.00
2023-03-31T15:34:31.373Z,99.90
2023-03-31T15:36:33.243Z,1.00
2023-03-31T15:38:35.356Z,99.90
2023-03-31T15:40:40.411Z,99.90
2023-03-31T15:42:50.616Z,99.90
2023-03-31T15:45:35.966Z,99.90
2023-03-31T15:47:38.787Z,99.90
2023-03-31T15:49:49.883Z,1.00
2023-03-31T15:51:53.188Z,1.00
2023-03-31T15:53:54.922Z,1.00
2023-03-31T15:56:00.044Z,14.70
2023-03-31T15:58:02.070Z,99.90
2023-03-31T16:00:07.319Z,99.90
2023-03-31T16:02:14.765Z,99.90
2023-03-31T16:04:17.616Z,99.90
2023-03-31T16:07:15.570Z,1.00
2023-03-31T16:09:39.009Z,99.90
2023-03-31T16:11:52.018Z,99.90
2023-03-31T16:13:56.868Z,99.90
2023-03-31T16:16:00.235Z,1.00
2023-03-31T16:18:08.552Z,1.00
2023-03-31T16:20:25.639Z,1.00
2023-03-31T16:22:35.331Z,1.00
2023-03-31T16:24:37.186Z,1.00
2023-03-31T16:26:38.932Z,1.00
2023-03-31T16:28:41.128Z,1.00
2023-03-31T16:30:44.272Z,1.00
2023-03-31T16:33:11.116Z,1.00
2023-03-31T16:35:12.823Z,1.00
2023-03-31T16:37:14.501Z,1.00
2023-03-31T16:39:16.178Z,1.00
2023-03-31T16:41:17.927Z,1.00
2023-03-31T16:43:30.525Z,1.00
2023-03-31T16:45:32.184Z,1.00
2023-03-31T16:47:36.260Z,1.00
2023-03-31T16:49:38.326Z,1.00
2023-03-31T16:51:39.946Z,1.00
2023-03-31T16:53:41.869Z,1.00
2023-03-31T16:55:43.721Z,1.00
2023-03-31T16:57:45.435Z,1.00
2023-03-31T16:59:47.562Z,1.00
2023-03-31T17:01:49.378Z,1.00
2023-03-31T17:03:51.441Z,1.00
2023-03-31T17:05:58.407Z,1.00
2023-03-31T17:08:01.274Z,1.00
2023-03-31T17:10:03.410Z,1.00
2023-03-31T17:12:05.453Z,1.00
2023-03-31T17:14:07.240Z,1.00
2023-03-31T17:16:19.134Z,1.00
2023-03-31T17:18:26.301Z,1.00
2023-03-31T17:20:28.078Z,1.00
2023-03-31T17:22:29.790Z,1.00
2023-03-31T17:24:31.472Z,1.00
2023-03-31T17:26:33.591Z,1.00
2023-03-31T17:28:35.782Z,1.00
2023-03-31T17:30:39.041Z,1.00
2023-03-31T17:32:41.288Z,1.00
2023-03-31T17:34:43.310Z,1.00
2023-03-31T17:36:45.079Z,1.00
2023-03-31T17:38:47.064Z,1.00
2023-03-31T17:40:48.796Z,1.00
2023-03-31T17:42:50.632Z,1.00
2023-03-31T17:44:53.306Z,1.00
2023-03-31T17:46:55.129Z,1.00
2023-03-31T17:48:58.394Z,1.00
2023-03-31T17:51:13.736Z,1.00
2023-03-31T17:53:15.454Z,1.00
2023-03-31T17:55:17.803Z,1.00
2023-03-31T17:57:19.471Z,1.00
2023-03-31T17:59:22.117Z,1.00
2023-03-31T18:01:23.809Z,1.00
2023-03-31T18:03:28.775Z,1.00
2023-03-31T18:05:32.493Z,1.00
2023-03-31T18:07:37.412Z,1.00
2023-03-31T18:09:39.650Z,1.00
2023-03-31T18:11:41.450Z,1.80
2023-03-31T18:13:43.339Z,69.40
2023-03-31T18:15:52.663Z,99.90
2023-03-31T18:17:54.780Z,99.90
2023-03-31T18:19:56.585Z,99.90
2023-03-31T18:21:58.268Z,99.90
2023-03-31T18:23:59.959Z,99.90
2023-03-31T18:26:02.028Z,99.90
2023-03-31T18:28:04.870Z,99.90
2023-03-31T18:30:07.502Z,99.90
2023-03-31T18:32:09.898Z,99.90
2023-03-31T18:34:13.526Z,99.90
2023-03-31T18:36:19.808Z,99.90
2023-03-31T18:38:21.993Z,99.90
2023-03-31T18:40:23.799Z,99.90
2023-03-31T18:42:25.779Z,99.90
2023-03-31T18:44:27.470Z,99.90
2023-03-31T18:46:29.274Z,99.90
2023-03-31T18:48:31.221Z,99.90
2023-03-31T18:50:33.286Z,99.90
2023-03-31T18:52:36.205Z,99.90
2023-03-31T18:54:38.220Z,99.90
2023-03-31T18:56:39.895Z,99.90
2023-03-31T18:58:41.843Z,99.90
2023-03-31T19:00:43.826Z,99.90
2023-03-31T19:02:45.888Z,99.90
2023-03-31T19:04:48.234Z,99.90
2023-03-31T19:06:49.942Z,99.90
2023-03-31T19:08:51.933Z,99.90
2023-03-31T19:11:06.957Z,99.90
2023-03-31T19:13:08.715Z,99.90
2023-03-31T19:15:10.621Z,99.90
2023-03-31T19:17:12.367Z,99.90
2023-03-31T19:19:14.090Z,99.90
2023-03-31T19:21:15.781Z,99.90
2023-03-31T19:23:17.508Z,99.90
2023-03-31T19:25:20.694Z,99.90
2023-03-31T19:27:23.032Z,99.90
2023-03-31T19:29:24.939Z,99.90
2023-03-31T19:31:27.960Z,99.90
2023-03-31T19:33:29.638Z,99.90
2023-03-31T19:35:31.859Z,99.90
2023-03-31T19:37:34.034Z,99.90
2023-03-31T19:39:37.438Z,99.90
2023-03-31T19:41:39.254Z,99.90
2023-03-31T19:43:41.108Z,99.90
2023-03-31T19:45:42.720Z,99.90
2023-03-31T19:47:44.714Z,99.90
2023-03-31T19:49:46.449Z,99.90
2023-03-31T19:51:48.183Z,99.90
2023-03-31T19:53:49.876Z,99.90
2023-03-31T19:56:09.230Z,99.90
2023-03-31T19:58:11.052Z,99.90
2023-03-31T20:00:13.129Z,99.90
2023-03-31T20:02:14.926Z,99.90
2023-03-31T20:04:18.189Z,99.90
2023-03-31T20:06:23.765Z,99.90
2023-03-31T20:08:25.479Z,99.90
2023-03-31T20:10:27.194Z,99.90
2023-03-31T20:12:28.962Z,99.90
2023-03-31T20:14:30.587Z,99.90
2023-03-31T20:16:32.858Z,99.90
2023-03-31T20:18:36.419Z,99.90
2023-03-31T20:20:40.684Z,99.90
2023-03-31T20:22:42.444Z,99.90
2023-03-31T20:24:44.141Z,99.90
2023-03-31T20:26:46.501Z,99.90
2023-03-31T20:28:48.491Z,99.90
2023-03-31T20:30:50.309Z,99.90
2023-03-31T20:32:52.014Z,99.90
2023-03-31T20:34:54.628Z,99.90
2023-03-31T20:36:57.101Z,99.90
2023-03-31T20:39:00.272Z,99.90
2023-03-31T20:41:02.035Z,99.90
2023-03-31T20:43:03.977Z,99.90
2023-03-31T20:45:06.750Z,99.90
2023-03-31T20:47:09.273Z,99.90
2023-03-31T20:49:11.440Z,99.90
2023-03-31T20:51:16.284Z,99.90
2023-03-31T20:53:18.066Z,99.90
2023-03-31T20:55:19.893Z,99.90
2023-03-31T20:57:21.708Z,99.90
2023-03-31T20:59:23.995Z,99.90
2023-03-31T21:01:27.777Z,99.90
2023-03-31T21:03:29.631Z,99.90
2023-03-31T21:05:31.689Z,99.90
2023-03-31T21:07:33.770Z,99.90
2023-03-31T21:09:35.506Z,99.90
2023-03-31T21:11:37.220Z,99.90
2023-03-31T21:13:39.064Z,99.90
2023-03-31T21:15:41.266Z,99.90
2023-03-31T21:17:43.368Z,99.90
2023-03-31T21:19:45.334Z,99.90
2023-03-31T21:21:47.015Z,99.90
2023-03-31T21:23:49.814Z,99.90
2023-03-31T21:25:54.618Z,99.90
2023-03-31T21:27:56.487Z,99.90
2023-03-31T21:29:58.608Z,99.90
2023-03-31T21:32:02.092Z,99.90
2023-03-31T21:34:04.681Z,99.90
2023-03-31T21:36:09.779Z,99.90
2023-03-31T21:38:12.139Z,99.90
2023-03-31T21:40:14.498Z,99.90
2023-03-31T21:42:16.768Z,99.90
2023-03-31T21:44:18.586Z,99.90
2023-03-31T21:46:27.529Z,99.90
2023-03-31T21:48:29.724Z,99.90
2023-03-31T21:50:31.780Z,99.90
2023-03-31T21:52:34.037Z,99.90
2023-03-31T21:54:35.810Z,99.90
2023-03-31T21:56:37.567Z,99.90
2023-03-31T21:58:39.330Z,99.90
2023-03-31T22:00:40.969Z,99.90
2023-03-31T22:02:43.534Z,99.90
2023-03-31T22:04:45.530Z,99.90
2023-03-31T22:06:47.213Z,99.90
2023-03-31T22:08:48.921Z,99.90
2023-03-31T22:10:51.914Z,99.90
2023-03-31T22:12:53.822Z,99.90
2023-03-31T22:14:56.923Z,99.90
2023-03-31T22:16:58.626Z,99.90
2023-03-31T22:19:00.280Z,99.90
2023-03-31T22:21:03.402Z,99.90
2023-03-31T22:23:05.332Z,99.90
2023-03-31T22:25:07.957Z,99.90
2023-03-31T22:27:10.109Z,99.90
2023-03-31T22:29:16.278Z,99.90
2023-03-31T22:31:18.486Z,99.90
2023-03-31T22:33:20.219Z,99.90
2023-03-31T22:35:22.233Z,99.90
2023-03-31T22:37:24.059Z,99.90
2023-03-31T22:39:26.509Z,99.90
2023-03-31T22:41:28.400Z,99.90
2023-03-31T22:43:30.099Z,99.90
2023-03-31T22:45:32.107Z,99.90
2023-03-31T22:47:34.108Z,98.30
2023-03-31T22:49:35.824Z,99.70
2023-03-31T22:51:37.863Z,99.90
2023-03-31T22:53:39.564Z,99.90
2023-03-31T22:55:42.886Z,99.90
2023-03-31T22:57:44.650Z,99.90
2023-03-31T22:59:46.742Z,99.90
2023-03-31T23:01:53.236Z,99.90
2023-03-31T23:03:55.822Z,99.90
2023-03-31T23:05:57.738Z,99.90
2023-03-31T23:07:59.396Z,99.90
2023-03-31T23:10:01.070Z,99.90
2023-03-31T23:12:02.929Z,99.90
2023-03-31T23:14:04.812Z,99.90
2023-03-31T23:16:09.066Z,99.90
2023-03-31T23:18:10.885Z,99.90
2023-03-31T23:20:14.489Z,99.90
2023-03-31T23:22:16.349Z,99.90
2023-03-31T23:24:19.805Z,99.90
2023-03-31T23:26:23.522Z,99.90
2023-03-31T23:28:25.186Z,99.90
2023-03-31T23:30:27.048Z,99.90
2023-03-31T23:32:28.713Z,99.90
2023-03-31T23:34:30.626Z,99.90
2023-03-31T23:36:32.376Z,99.90
2023-03-31T23:38:34.555Z,99.90
2023-03-31T23:40:37.291Z,99.90
2023-03-31T23:42:39.076Z,99.90
2023-03-31T23:44:40.808Z,99.90
2023-03-31T23:46:44.202Z,99.90
2023-03-31T23:48:46.232Z,99.90
2023-03-31T23:50:48.016Z,99.90
2023-03-31T23:52:49.698Z,99.90
2023-03-31T23:54:51.731Z,99.90
2023-03-31T23:56:53.611Z,99.90
2023-03-31T23:58:55.373Z,99.90
